Time;durP1;ratioP1;P1;durP2;ratioP2;P2;SDS_P1;SDS_P2;PMS_P1;PMS_P2;Temp;Humidity;BMP_temperature;BMP_pressure;BME280_temperature;BME280_humidity;BME280_pressure;Samples;Min_cycle;Max_cycle;Signal;HPM_P1;HPM_P2
2021/08/11 00:01:18;;;;;;;0.50;0.40;;;17.70;73.40;;;;;;5057927;28;20078;-77
2021/08/11 00:03:43;;;;;;;0.80;0.50;;;17.60;73.40;;;;;;5075827;28;20032;-77
2021/08/11 00:06:09;;;;;;;0.60;0.40;;;17.60;73.70;;;;;;5075759;28;20048;-77
2021/08/11 00:08:35;;;;;;;0.60;0.40;;;17.60;73.50;;;;;;5069819;28;20570;-77
2021/08/11 00:11:00;;;;;;;0.60;0.40;;;17.60;73.50;;;;;;5055936;28;20025;-77
2021/08/11 00:13:26;;;;;;;0.60;0.40;;;17.50;73.30;;;;;;5055753;28;20158;-77
2021/08/11 00:15:52;;;;;;;0.60;0.50;;;17.50;73.40;;;;;;5055665;28;20025;-77
2021/08/11 00:18:17;;;;;;;1.13;0.50;;;17.50;73.50;;;;;;5067713;28;20036;-77
2021/08/11 00:20:43;;;;;;;0.60;0.50;;;17.30;73.40;;;;;;5054304;28;20060;-77
2021/08/11 00:23:09;;;;;;;0.50;0.40;;;17.30;73.60;;;;;;5055693;28;20067;-77
2021/08/11 00:25:34;;;;;;;0.63;0.50;;;17.30;74.00;;;;;;5054218;28;20044;-77
2021/08/11 00:28:00;;;;;;;0.77;0.40;;;17.30;73.90;;;;;;5055423;28;20021;-77
2021/08/11 00:30:26;;;;;;;0.77;0.50;;;17.30;74.00;;;;;;5075294;28;20029;-77
2021/08/11 00:32:51;;;;;;;0.77;0.50;;;17.30;74.00;;;;;;5075512;28;20021;-77
2021/08/11 00:35:17;;;;;;;1.42;0.60;;;17.30;74.10;;;;;;5075391;28;20024;-76
2021/08/11 00:37:56;;;;;;;0.75;0.60;;;17.30;74.00;;;;;;5055627;28;20029;-77
2021/08/11 00:40:24;;;;;;;0.90;0.60;;;17.20;74.30;;;;;;5057782;28;20499;-77
2021/08/11 00:42:50;;;;;;;1.15;0.60;;;17.20;74.80;;;;;;5075130;28;20108;-77
2021/08/11 00:45:16;;;;;;;0.85;0.55;;;17.10;74.70;;;;;;5077814;28;20406;-77
2021/08/11 00:47:42;;;;;;;0.70;0.60;;;16.90;75.40;;;;;;5081987;28;20029;-77
2021/08/11 00:50:09;;;;;;;0.80;0.40;;;16.90;75.80;;;;;;5063951;28;20033;-77
2021/08/11 00:52:35;;;;;;;0.93;0.68;;;16.90;75.80;;;;;;5061912;28;20033;-77
2021/08/11 00:55:04;;;;;;;0.70;0.50;;;16.90;75.60;;;;;;5060375;28;20051;-77
2021/08/11 00:57:31;;;;;;;0.70;0.57;;;16.90;75.60;;;;;;5061760;28;20060;-77
2021/08/11 00:59:58;;;;;;;0.63;0.50;;;16.90;75.50;;;;;;5061884;28;20021;-77
2021/08/11 01:02:24;;;;;;;1.05;0.60;;;16.90;75.60;;;;;;5060545;28;20024;-77
2021/08/11 01:04:56;;;;;;;1.00;0.60;;;16.90;75.90;;;;;;5060451;28;20029;-77
2021/08/11 01:07:26;;;;;;;0.60;0.50;;;16.90;75.90;;;;;;5060725;28;20021;-77
2021/08/11 01:09:53;;;;;;;0.70;0.60;;;16.80;75.70;;;;;;5061910;28;20037;-77
2021/08/11 01:12:27;;;;;;;0.68;0.63;;;16.90;75.40;;;;;;5061435;28;20100;-77
2021/08/11 01:14:54;;;;;;;1.02;0.60;;;16.90;75.30;;;;;;5061748;28;20032;-77
2021/08/11 01:17:35;;;;;;;;;;;;;;;;;;;;;
2021/08/11 01:20:04;;;;;;;0.60;0.50;;;16.90;75.40;;;;;;5061674;28;20029;-77
2021/08/11 01:22:48;;;;;;;1.08;0.68;;;16.80;75.40;;;;;;5060582;28;20109;-77
2021/08/11 01:25:33;;;;;;;0.70;0.50;;;16.80;75.50;;;;;;5061621;28;20044;-77
2021/08/11 01:28:11;;;;;;;0.90;0.60;;;16.80;75.60;;;;;;5061707;28;20032;-77
2021/08/11 01:31:07;;;;;;;0.88;0.60;;;16.80;75.30;;;;;;5061596;28;20033;-77
2021/08/11 01:33:45;;;;;;;1.65;0.43;;;16.80;75.10;;;;;;5061402;28;20078;-77
2021/08/11 01:36:36;;;;;;;0.80;0.50;;;16.80;75.50;;;;;;5061663;28;20111;-77
2021/08/11 01:39:10;;;;;;;0.80;0.50;;;16.80;75.40;;;;;;5061474;28;20028;-76
2021/08/11 01:41:43;;;;;;;0.88;0.60;;;16.70;75.90;;;;;;5075997;28;20032;-77
2021/08/11 01:44:10;;;;;;;1.25;0.60;;;16.70;75.80;;;;;;5072864;28;20037;-76
2021/08/11 01:46:41;;;;;;;0.80;0.60;;;16.60;75.60;;;;;;5061436;28;20133;-77
2021/08/11 01:49:09;;;;;;;0.77;0.50;;;16.70;75.60;;;;;;5061447;28;20037;-77
2021/08/11 01:51:46;;;;;;;1.20;0.65;;;16.70;75.30;;;;;;5076315;28;20117;-77
2021/08/11 01:54:13;;;;;;;0.85;0.60;;;16.60;75.40;;;;;;5061209;28;20032;-77
2021/08/11 01:56:41;;;;;;;0.95;0.60;;;16.50;75.70;;;;;;5057897;28;20028;-77
2021/08/11 01:59:08;;;;;;;0.77;0.57;;;16.40;76.10;;;;;;5056727;28;20097;-77
2021/08/11 02:01:41;;;;;;;0.70;0.60;;;16.30;76.10;;;;;;5058229;28;20115;-77
2021/08/11 02:04:08;;;;;;;1.10;0.60;;;16.30;76.20;;;;;;5057982;28;20155;-77
2021/08/11 02:06:35;;;;;;;0.90;0.68;;;16.20;76.40;;;;;;5056994;28;20029;-77
2021/08/11 02:09:04;;;;;;;0.88;0.60;;;16.20;76.50;;;;;;5065395;28;20078;-77
2021/08/11 02:11:37;;;;;;;0.73;0.60;;;16.10;77.00;;;;;;5076479;28;20032;-76
2021/08/11 02:14:04;;;;;;;0.90;0.70;;;16.00;77.10;;;;;;5073050;28;20099;-77
2021/08/11 02:16:30;;;;;;;1.00;0.70;;;16.10;76.70;;;;;;5057886;28;20079;-76
2021/08/11 02:18:58;;;;;;;0.77;0.60;;;16.00;77.00;;;;;;5057688;28;20033;-77
2021/08/11 02:21:23;;;;;;;0.90;0.60;;;16.10;76.60;;;;;;5057533;28;20506;-77
2021/08/11 02:23:49;;;;;;;1.00;0.60;;;16.10;76.50;;;;;;5057690;28;20025;-77
2021/08/11 02:26:50;;;;;;;0.70;0.50;;;16.00;76.30;;;;;;5057755;28;20110;-77
2021/08/11 02:29:38;;;;;;;0.77;0.60;;;16.00;76.30;;;;;;5057249;28;20469;-77
2021/08/11 02:32:12;;;;;;;0.93;0.70;;;16.00;76.50;;;;;;5072826;28;20095;-77
2021/08/11 02:34:46;;;;;;;0.80;0.60;;;15.90;77.00;;;;;;5077470;28;20032;-77
2021/08/11 02:37:26;;;;;;;0.80;0.60;;;15.90;77.10;;;;;;5064472;28;20563;-77
2021/08/11 02:40:08;;;;;;;1.00;0.60;;;16.00;77.00;;;;;;5057617;28;20029;-77
2021/08/11 02:42:40;;;;;;;0.60;0.50;;;15.90;76.40;;;;;;5057036;28;20090;-76
2021/08/11 02:45:09;;;;;;;1.13;0.65;;;15.90;76.40;;;;;;5057321;28;20145;-77
2021/08/11 02:47:37;;;;;;;0.80;0.60;;;15.90;76.80;;;;;;5057094;28;20032;-77
2021/08/11 02:50:06;;;;;;;0.73;0.70;;;15.90;76.70;;;;;;5056996;28;20021;-77
2021/08/11 02:52:33;;;;;;;0.70;0.60;;;15.80;76.60;;;;;;5057234;28;20021;-77
2021/08/11 02:54:59;;;;;;;0.77;0.60;;;15.80;76.70;;;;;;5057414;28;20039;-76
2021/08/11 02:57:25;;;;;;;1.10;0.80;;;15.80;76.60;;;;;;5057029;28;20052;-77
2021/08/11 02:59:55;;;;;;;0.95;0.55;;;15.70;76.80;;;;;;5055753;28;20032;-77
2021/08/11 03:02:21;;;;;;;1.00;0.80;;;15.70;76.60;;;;;;5072399;28;20021;-77
2021/08/11 03:04:47;;;;;;;0.82;0.70;;;15.70;76.80;;;;;;5055598;28;20068;-76
2021/08/11 03:07:13;;;;;;;0.70;0.52;;;15.70;76.70;;;;;;5056947;28;20017;-77
2021/08/11 03:09:39;;;;;;;0.90;0.60;;;15.70;76.70;;;;;;5055512;28;20025;-77
2021/08/11 03:12:09;;;;;;;0.80;0.60;;;15.80;76.60;;;;;;5056592;28;20039;-77
2021/08/11 03:14:38;;;;;;;1.00;0.70;;;15.80;76.10;;;;;;5056915;28;20041;-76
2021/08/11 03:17:13;;;;;;;0.90;0.63;;;15.80;75.90;;;;;;5071466;28;20024;-76
2021/08/11 03:19:39;;;;;;;0.70;0.60;;;15.80;76.10;;;;;;5075660;28;20453;-76
2021/08/11 03:22:07;;;;;;;0.80;0.50;;;15.80;76.10;;;;;;5060865;28;20438;-77
2021/08/11 03:24:33;;;;;;;0.63;0.47;;;15.70;76.10;;;;;;5055203;28;20473;-76
2021/08/11 03:26:59;;;;;;;0.70;0.60;;;15.70;76.60;;;;;;5070653;28;20061;-77
2021/08/11 03:29:25;;;;;;;0.80;0.68;;;15.60;76.70;;;;;;5071852;28;20162;-77
2021/08/11 03:31:50;;;;;;;1.15;0.60;;;15.60;76.30;;;;;;5071704;28;20462;-77
2021/08/11 03:34:18;;;;;;;0.85;0.60;;;15.50;76.70;;;;;;5055060;28;20056;-76
2021/08/11 03:36:44;;;;;;;0.68;0.57;;;15.50;76.70;;;;;;5073417;28;20028;-76
2021/08/11 03:39:09;;;;;;;0.82;0.70;;;15.50;76.70;;;;;;5071572;28;20040;-76
2021/08/11 03:41:35;;;;;;;0.77;0.60;;;15.60;76.80;;;;;;5070633;28;20031;-77
2021/08/11 03:44:01;;;;;;;0.90;0.70;;;15.60;76.70;;;;;;5074719;28;20525;-77
2021/08/11 03:46:27;;;;;;;0.77;0.60;;;15.50;76.50;;;;;;5075003;28;20612;-76
2021/08/11 03:48:52;;;;;;;1.05;0.70;;;15.50;76.30;;;;;;5063557;28;20036;-76
2021/08/11 03:51:28;;;;;;;0.75;0.60;;;15.40;76.90;;;;;;5056069;28;20048;-76
2021/08/11 03:53:54;;;;;;;1.38;1.00;;;15.40;76.80;;;;;;5056110;28;20614;-76
2021/08/11 03:56:19;;;;;;;0.70;0.60;;;15.30;76.90;;;;;;5055788;28;20028;-77
2021/08/11 03:58:45;;;;;;;1.17;0.75;;;15.30;76.60;;;;;;5055851;28;20066;-76
2021/08/11 04:01:11;;;;;;;0.80;0.60;;;15.40;76.60;;;;;;5055563;28;20029;-77
2021/08/11 04:03:36;;;;;;;1.20;0.68;;;15.40;76.80;;;;;;5054786;28;20029;-77
2021/08/11 04:06:02;;;;;;;0.82;0.70;;;15.40;76.10;;;;;;5071178;28;20029;-77
2021/08/11 04:08:44;;;;;;;1.15;0.80;;;15.40;76.00;;;;;;5054596;28;20714;-76
2021/08/11 04:11:09;;;;;;;0.90;0.70;;;15.40;75.70;;;;;;5059510;28;20043;-76
2021/08/11 04:13:35;;;;;;;0.80;0.60;;;15.40;75.70;;;;;;5074676;28;20028;-77
2021/08/11 04:16:01;;;;;;;1.83;0.68;;;15.30;76.30;;;;;;5063054;28;20029;-76
2021/08/11 04:18:27;;;;;;;0.95;0.70;;;15.30;76.30;;;;;;5054472;28;20053;-77
2021/08/11 04:20:52;;;;;;;1.60;0.70;;;15.30;76.00;;;;;;5055211;28;20036;-76
2021/08/11 04:23:18;;;;;;;0.90;0.77;;;15.20;76.30;;;;;;5054443;28;20492;-77
2021/08/11 04:25:44;;;;;;;1.13;0.80;;;15.20;77.10;;;;;;5055846;28;20060;-77
2021/08/11 04:28:10;;;;;;;0.80;0.68;;;15.20;76.90;;;;;;5071054;28;20029;-77
2021/08/11 04:30:36;;;;;;;0.90;0.68;;;15.10;76.90;;;;;;5054235;28;20032;-77
2021/08/11 04:33:02;;;;;;;0.65;0.60;;;15.10;77.10;;;;;;5055428;28;20017;-77
2021/08/11 04:35:28;;;;;;;0.90;0.70;;;15.10;77.30;;;;;;5054336;28;20093;-77
2021/08/11 04:37:56;;;;;;;1.00;0.80;;;15.10;77.10;;;;;;5055729;28;20862;-77
2021/08/11 04:40:21;;;;;;;0.90;0.50;;;15.00;77.50;;;;;;5071563;28;20144;-76
2021/08/11 04:42:47;;;;;;;0.90;0.70;;;14.90;77.80;;;;;;5074123;28;20087;-77
2021/08/11 04:45:13;;;;;;;0.82;0.70;;;14.90;77.80;;;;;;5074278;28;20390;-76
2021/08/11 04:47:39;;;;;;;0.75;0.55;;;14.90;78.20;;;;;;5074269;28;20074;-76
2021/08/11 04:50:05;;;;;;;1.10;0.70;;;14.90;78.40;;;;;;5066997;28;20028;-77
2021/08/11 04:52:31;;;;;;;0.80;0.70;;;14.90;78.40;;;;;;5058067;28;20480;-77
2021/08/11 04:54:57;;;;;;;1.20;0.70;;;14.90;78.30;;;;;;5054172;28;20074;-77
2021/08/11 04:57:22;;;;;;;1.02;0.68;;;15.00;78.10;;;;;;5062132;28;20103;-77
2021/08/11 04:59:48;;;;;;;1.38;0.80;;;14.90;78.20;;;;;;5075490;28;20024;-76
2021/08/11 05:02:14;;;;;;;1.13;0.73;;;15.00;78.20;;;;;;5075179;28;20032;-77
2021/08/11 05:04:40;;;;;;;1.00;0.60;;;15.10;78.00;;;;;;5062198;28;20037;-76
2021/08/11 05:07:09;;;;;;;0.82;0.63;;;15.10;77.70;;;;;;5055124;28;20023;-76
2021/08/11 05:09:35;;;;;;;0.80;0.70;;;15.10;77.50;;;;;;5055010;28;20553;-77
2021/08/11 05:12:01;;;;;;;1.02;0.70;;;15.10;77.30;;;;;;5055070;28;20025;-76
2021/08/11 05:14:31;;;;;;;1.00;0.80;;;15.10;77.30;;;;;;5055050;28;20056;-77
2021/08/11 05:16:57;;;;;;;0.70;0.60;;;15.10;77.40;;;;;;5054890;28;20029;-76
2021/08/11 05:19:22;;;;;;;0.80;0.70;;;15.10;77.60;;;;;;5055156;28;20491;-76
2021/08/11 05:21:50;;;;;;;0.73;0.60;;;15.10;77.20;;;;;;5054778;28;20075;-76
2021/08/11 05:24:15;;;;;;;0.70;0.52;;;15.10;77.40;;;;;;5054873;28;20033;-76
2021/08/11 05:26:41;;;;;;;0.70;0.60;;;15.00;77.50;;;;;;5053617;28;20029;-76
2021/08/11 05:29:07;;;;;;;0.60;0.50;;;15.00;77.60;;;;;;5054864;28;20029;-76
2021/08/11 05:31:33;;;;;;;0.57;0.47;;;14.90;77.70;;;;;;5054920;28;20018;-76
2021/08/11 05:33:59;;;;;;;0.70;0.60;;;14.90;78.00;;;;;;5057281;28;20032;-76
2021/08/11 05:36:25;;;;;;;0.90;0.63;;;14.90;77.90;;;;;;5057538;28;20495;-76
2021/08/11 05:38:50;;;;;;;0.90;0.60;;;14.90;78.50;;;;;;5057314;28;20029;-76
2021/08/11 05:41:16;;;;;;;0.85;0.70;;;15.00;78.10;;;;;;5072523;28;20105;-76
2021/08/11 05:43:41;;;;;;;1.00;0.70;;;15.00;78.10;;;;;;5078527;28;20416;-76
2021/08/11 05:46:07;;;;;;;0.82;0.70;;;15.10;78.40;;;;;;5078503;28;20028;-77
2021/08/11 05:48:33;;;;;;;0.80;0.70;;;15.10;78.40;;;;;;5063652;28;20032;-77
2021/08/11 05:50:59;;;;;;;0.90;0.70;;;15.10;78.70;;;;;;5058307;28;20025;-77
2021/08/11 05:53:25;;;;;;;1.00;0.80;;;15.20;78.80;;;;;;5058377;28;20032;-76
2021/08/11 05:55:52;;;;;;;0.80;0.60;;;15.20;78.80;;;;;;5057176;28;20021;-77
2021/08/11 05:58:17;;;;;;;0.70;0.60;;;15.20;79.00;;;;;;5058060;28;20028;-76
2021/08/11 06:00:43;;;;;;;1.10;0.70;;;15.30;78.70;;;;;;5058305;28;20036;-76
2021/08/11 06:03:09;;;;;;;0.50;0.45;;;15.30;78.30;;;;;;5056979;28;20078;-76
2021/08/11 06:05:38;;;;;;;1.17;0.68;;;15.40;78.10;;;;;;5073417;28;20032;-76
2021/08/11 06:08:04;;;;;;;0.73;0.63;;;15.40;77.90;;;;;;5056781;28;20120;-76
2021/08/11 06:10:30;;;;;;;0.90;0.70;;;15.50;78.30;;;;;;5056804;28;20089;-76
2021/08/11 06:12:55;;;;;;;0.73;0.70;;;15.60;78.30;;;;;;5057943;28;20036;-77
2021/08/11 06:15:22;;;;;;;1.08;0.80;;;15.70;78.70;;;;;;5057596;28;20565;-76
2021/08/11 06:17:49;;;;;;;0.95;0.73;;;15.70;78.80;;;;;;5057730;28;20089;-76
2021/08/11 06:20:17;;;;;;;0.80;0.70;;;15.70;79.10;;;;;;5058063;28;20024;-76
2021/08/11 06:22:44;;;;;;;1.05;0.70;;;15.70;79.70;;;;;;5057981;28;20021;-76
2021/08/11 06:25:11;;;;;;;1.20;0.80;;;15.80;79.60;;;;;;5068813;28;20024;-76
2021/08/11 06:27:37;;;;;;;1.33;0.70;;;15.80;79.80;;;;;;5077784;28;20020;-76
2021/08/11 06:30:04;;;;;;;0.73;0.60;;;15.80;79.90;;;;;;5077682;28;20027;-76
2021/08/11 06:32:30;;;;;;;0.80;0.70;;;15.90;79.50;;;;;;5064866;28;20082;-76
2021/08/11 06:34:56;;;;;;;0.80;0.60;;;16.00;79.50;;;;;;5057549;28;20057;-77
2021/08/11 06:37:22;;;;;;;0.80;0.63;;;16.00;79.30;;;;;;5057533;28;20044;-76
2021/08/11 06:39:48;;;;;;;1.13;0.70;;;16.10;79.70;;;;;;5057261;28;20056;-77
2021/08/11 06:42:13;;;;;;;0.70;0.55;;;16.20;79.60;;;;;;5075514;28;20039;-76
2021/08/11 06:44:39;;;;;;;0.80;0.60;;;16.30;78.80;;;;;;5062006;28;20487;-76
2021/08/11 06:47:06;;;;;;;1.10;0.70;;;16.40;78.50;;;;;;5072565;28;20477;-77
2021/08/11 06:49:32;;;;;;;0.95;0.65;;;16.50;78.80;;;;;;5056308;28;20041;-76
2021/08/11 06:51:57;;;;;;;0.90;0.70;;;16.60;77.80;;;;;;5055890;28;20057;-77
2021/08/11 06:54:23;;;;;;;0.75;0.60;;;16.80;77.40;;;;;;5056115;28;20036;-77
2021/08/11 06:56:48;;;;;;;1.00;0.70;;;16.80;77.20;;;;;;5072471;28;20037;-77
2021/08/11 06:59:14;;;;;;;0.90;0.60;;;16.90;77.60;;;;;;5055804;28;20025;-77
2021/08/11 07:01:40;;;;;;;0.70;0.50;;;16.90;78.40;;;;;;5057185;28;20529;-77
2021/08/11 07:04:06;;;;;;;0.93;0.57;;;17.00;77.50;;;;;;5056859;28;20033;-76
2021/08/11 07:06:32;;;;;;;1.02;0.68;;;17.00;77.10;;;;;;5057007;28;20032;-76
2021/08/11 07:08:58;;;;;;;1.00;0.70;;;17.20;77.10;;;;;;5071134;28;20395;-76
2021/08/11 07:11:23;;;;;;;0.80;0.60;;;17.20;77.60;;;;;;5056754;28;20037;-77
2021/08/11 07:13:49;;;;;;;0.80;0.70;;;17.30;77.70;;;;;;5056918;28;20021;-76
2021/08/11 07:16:16;;;;;;;0.70;0.50;;;17.50;77.30;;;;;;5056623;28;20032;-76
2021/08/11 07:18:41;;;;;;;0.82;0.50;;;17.60;77.20;;;;;;5056908;28;20017;-76
2021/08/11 07:21:07;;;;;;;0.93;0.60;;;18.00;75.70;;;;;;5055449;28;20044;-76
2021/08/11 07:23:33;;;;;;;0.70;0.52;;;18.60;74.90;;;;;;5056808;28;20021;-76
2021/08/11 07:25:59;;;;;;;0.65;0.50;;;19.60;72.20;;;;;;5055199;28;20059;-77
2021/08/11 07:28:24;;;;;;;0.40;0.30;;;22.50;63.50;;;;;;5056463;28;20048;-77
2021/08/11 07:30:50;;;;;;;0.30;0.20;;;24.40;57.30;;;;;;5056292;28;20040;-77
2021/08/11 07:33:16;;;;;;;0.40;0.30;;;24.80;55.40;;;;;;5056712;28;20028;-77
2021/08/11 07:35:42;;;;;;;0.60;0.30;;;24.00;56.70;;;;;;5056452;28;20032;-78
2021/08/11 07:38:08;;;;;;;1.25;0.30;;;23.20;58.30;;;;;;5056232;28;20624;-77
2021/08/11 07:40:36;;;;;;;0.40;0.30;;;22.90;59.50;;;;;;5062004;28;20031;-77
2021/08/11 07:43:04;;;;;;;0.50;0.20;;;23.30;58.80;;;;;;5076222;28;20055;-77
2021/08/11 07:45:30;;;;;;;0.50;0.30;;;24.00;57.90;;;;;;5075157;28;20130;-78
2021/08/11 07:47:57;;;;;;;0.52;0.32;;;25.70;53.60;;;;;;5061160;28;20150;-77
2021/08/11 07:50:28;;;;;;;0.75;0.40;;;26.70;51.30;;;;;;5056002;28;20055;-78
2021/08/11 07:52:55;;;;;;;0.35;0.22;;;28.00;47.60;;;;;;5056375;28;20060;-78
2021/08/11 07:55:20;;;;;;;0.70;0.35;;;29.60;44.70;;;;;;5055241;28;20108;-78
2021/08/11 07:57:46;;;;;;;0.35;0.20;;;30.90;42.40;;;;;;5055871;28;20059;-78
2021/08/11 08:00:14;;;;;;;1.05;0.38;;;31.90;38.90;;;;;;5055983;28;20033;-78
2021/08/11 08:02:40;;;;;;;0.30;0.20;;;32.80;38.10;;;;;;5055643;28;20036;-78
2021/08/11 08:05:06;;;;;;;0.20;0.10;;;33.20;36.30;;;;;;5055982;28;20032;-78
2021/08/11 08:07:32;;;;;;;0.20;0.20;;;33.70;36.00;;;;;;5056056;28;20522;-78
2021/08/11 08:09:57;;;;;;;0.50;0.20;;;34.10;35.40;;;;;;5055973;28;20021;-78
2021/08/11 08:12:23;;;;;;;0.47;0.20;;;34.20;35.40;;;;;;5055672;28;20024;-78
2021/08/11 08:14:49;;;;;;;0.40;0.13;;;34.70;35.10;;;;;;5055516;28;20025;-79
2021/08/11 08:17:15;;;;;;;0.40;0.20;;;35.00;34.10;;;;;;5055691;28;20052;-79
2021/08/11 08:19:40;;;;;;;0.50;0.28;;;35.40;33.20;;;;;;5055585;28;20031;-79
2021/08/11 08:22:06;;;;;;;0.50;0.20;;;35.60;31.80;;;;;;5054381;28;20045;-79
2021/08/11 08:24:32;;;;;;;0.40;0.20;;;35.80;31.30;;;;;;5055472;28;20037;-78
2021/08/11 08:27:02;;;;;;;0.40;0.20;;;35.70;30.00;;;;;;5055596;28;20070;-78
2021/08/11 08:29:28;;;;;;;0.38;0.20;;;35.70;28.80;;;;;;5055413;28;20013;-78
2021/08/11 08:31:54;;;;;;;0.35;0.20;;;34.90;30.20;;;;;;5055354;28;20545;-78
2021/08/11 08:34:19;;;;;;;0.40;0.10;;;35.00;27.80;;;;;;5055318;28;20108;-79
2021/08/11 08:36:45;;;;;;;0.10;0.10;;;34.60;30.50;;;;;;5055356;28;20108;-78
2021/08/11 08:39:10;;;;;;;0.30;0.10;;;32.80;33.00;;;;;;5055651;28;20563;-77
2021/08/11 08:41:37;;;;;;;0.30;0.10;;;31.40;33.80;;;;;;5069654;28;20376;-78
2021/08/11 08:44:03;;;;;;;0.50;0.22;;;30.80;36.80;;;;;;5075230;28;20051;-78
2021/08/11 08:46:29;;;;;;;0.52;0.20;;;31.30;35.70;;;;;;5066909;28;20120;-78
2021/08/11 08:48:57;;;;;;;0.35;0.13;;;31.70;33.90;;;;;;5055191;28;20021;-78
2021/08/11 08:51:25;;;;;;;0.30;0.10;;;30.90;36.30;;;;;;5055550;28;20036;-78
2021/08/11 08:53:51;;;;;;;0.30;0.20;;;31.20;35.90;;;;;;5055353;28;20108;-77
2021/08/11 08:56:17;;;;;;;0.22;0.10;;;30.80;34.60;;;;;;5055207;28;20055;-78
2021/08/11 08:58:43;;;;;;;0.40;0.20;;;30.60;36.80;;;;;;5054976;28;20052;-77
2021/08/11 09:01:09;;;;;;;0.30;0.20;;;30.30;37.20;;;;;;5055555;28;20021;-78
2021/08/11 09:03:35;;;;;;;0.47;0.20;;;31.00;37.60;;;;;;5055246;28;20503;-77
2021/08/11 09:06:01;;;;;;;0.50;0.20;;;31.00;36.60;;;;;;5055860;28;20024;-78
2021/08/11 09:08:27;;;;;;;0.50;0.30;;;31.10;35.50;;;;;;5058031;28;20037;-78
2021/08/11 09:10:54;;;;;;;0.52;0.28;;;32.20;35.10;;;;;;5058987;28;20025;-78
2021/08/11 09:13:22;;;;;;;0.50;0.20;;;32.90;34.00;;;;;;5059059;28;20036;-78
2021/08/11 09:16:03;;;;;;;0.35;0.20;;;33.60;33.50;;;;;;5079016;28;20556;-78
2021/08/11 09:18:29;;;;;;;0.40;0.20;;;34.20;32.40;;;;;;5069187;28;20044;-78
2021/08/11 09:21:03;;;;;;;0.30;0.20;;;34.40;32.20;;;;;;5058959;28;20483;-78
2021/08/11 09:23:41;;;;;;;0.30;0.20;;;34.70;32.10;;;;;;5058959;28;20503;-77
2021/08/11 09:26:12;;;;;;;0.70;0.30;;;34.50;32.30;;;;;;5059163;28;20061;-77
2021/08/11 09:28:40;;;;;;;0.50;0.22;;;34.80;31.00;;;;;;5058865;28;20036;-78
2021/08/11 09:31:27;;;;;;;0.57;0.20;;;34.40;31.70;;;;;;5058647;28;20399;-78
2021/08/11 09:33:55;;;;;;;0.60;0.30;;;33.90;31.80;;;;;;5058581;28;20463;-78
2021/08/11 09:36:20;;;;;;;0.80;0.47;;;33.80;31.70;;;;;;5058872;28;20082;-78
2021/08/11 09:39:04;;;;;;;0.75;0.30;;;33.00;34.80;;;;;;5058745;28;20032;-78
2021/08/11 09:41:32;;;;;;;0.35;0.20;;;33.30;32.70;;;;;;5067642;28;20395;-78
2021/08/11 09:44:10;;;;;;;0.50;0.30;;;34.00;32.90;;;;;;5058499;28;20064;-78
2021/08/11 09:46:40;;;;;;;0.50;0.20;;;34.90;32.80;;;;;;5074038;28;20025;-78
2021/08/11 09:49:18;;;;;;;0.40;0.30;;;35.50;31.80;;;;;;5063913;28;20037;-78
2021/08/11 09:52:00;;;;;;;0.35;0.28;;;35.30;31.50;;;;;;5077329;28;20369;-78
2021/08/11 09:54:28;;;;;;;0.50;0.20;;;35.30;32.10;;;;;;5078381;28;20082;-78
2021/08/11 09:56:55;;;;;;;0.50;0.28;;;35.00;31.30;;;;;;5073161;28;20028;-78
2021/08/11 09:59:20;;;;;;;0.40;0.20;;;35.10;32.40;;;;;;5058358;28;20037;-78
2021/08/11 10:01:46;;;;;;;0.47;0.30;;;35.70;31.70;;;;;;5058266;28;20453;-78
2021/08/11 10:04:13;;;;;;;0.50;0.30;;;35.40;32.00;;;;;;5058214;28;20033;-78
2021/08/11 10:06:41;;;;;;;0.53;0.30;;;35.30;33.10;;;;;;5063627;28;20376;-78
2021/08/11 10:09:11;;;;;;;0.73;0.30;;;35.00;32.20;;;;;;5078179;28;20470;-78
2021/08/11 10:11:39;;;;;;;0.40;0.28;;;34.30;34.00;;;;;;5066569;28;20115;-78
2021/08/11 10:14:08;;;;;;;0.77;0.30;;;34.50;33.70;;;;;;5058079;28;20032;-78
2021/08/11 10:16:34;;;;;;;0.43;0.20;;;34.80;32.40;;;;;;5058094;28;20100;-78
2021/08/11 10:19:03;;;;;;;0.50;0.30;;;34.40;33.20;;;;;;5056855;28;20021;-77
2021/08/11 10:21:33;;;;;;;0.40;0.20;;;34.30;34.70;;;;;;5057854;28;20056;-78
2021/08/11 10:24:00;;;;;;;0.57;0.30;;;33.90;33.50;;;;;;5058051;28;20609;-78
2021/08/11 10:26:28;;;;;;;0.57;0.20;;;33.60;34.60;;;;;;5077868;28;20050;-78
2021/08/11 10:28:54;;;;;;;0.93;0.30;;;32.90;35.50;;;;;;5077802;28;20029;-78
2021/08/11 10:31:20;;;;;;;0.52;0.30;;;31.50;38.50;;;;;;5077873;28;20111;-78
2021/08/11 10:33:47;;;;;;;0.40;0.20;;;31.00;37.90;;;;;;5064301;28;20018;-78
2021/08/11 10:36:15;;;;;;;0.38;0.20;;;30.70;38.60;;;;;;5067176;28;20033;-77
2021/08/11 10:38:43;;;;;;;0.57;0.20;;;30.60;40.10;;;;;;5057552;28;20031;-77
2021/08/11 10:41:10;;;;;;;0.82;0.40;;;30.40;42.70;;;;;;5067985;28;20051;-78
2021/08/11 10:43:36;;;;;;;0.90;0.50;;;30.60;40.30;;;;;;5076145;28;20048;-77
2021/08/11 10:46:13;;;;;;;0.55;0.20;;;30.20;41.30;;;;;;5074038;28;20123;-77
2021/08/11 10:48:39;;;;;;;1.00;0.40;;;30.00;40.50;;;;;;5057327;28;20017;-78
2021/08/11 10:51:04;;;;;;;1.05;0.30;;;29.80;41.10;;;;;;5058313;28;20044;-77
2021/08/11 10:53:31;;;;;;;1.17;0.20;;;29.60;42.30;;;;;;5077273;28;20025;-77
2021/08/11 10:55:57;;;;;;;0.50;0.20;;;29.80;42.40;;;;;;5075942;28;20029;-77
2021/08/11 10:58:40;;;;;;;0.30;0.20;;;29.40;41.90;;;;;;5077309;28;20391;-77
2021/08/11 11:01:30;;;;;;;0.75;0.20;;;29.50;42.30;;;;;;5069528;28;20582;-77
2021/08/11 11:03:55;;;;;;;;;;;29.30;41.90;;;;;;5057441;28;20108;-77
2021/08/11 11:06:21;;;;;;;0.50;0.30;;;29.60;43.10;;;;;;5057084;28;20356;-77
2021/08/11 11:08:47;;;;;;;0.50;0.20;;;29.60;44.00;;;;;;5056836;28;20120;-77
2021/08/11 11:11:28;;;;;;;0.35;0.20;;;29.50;44.80;;;;;;5072469;28;20052;-77
2021/08/11 11:13:54;;;;;;;0.20;0.10;;;29.40;44.50;;;;;;5072402;28;20024;-77
2021/08/11 11:16:21;;;;;;;0.10;0.10;;;29.10;45.20;;;;;;5056824;28;20027;-77
2021/08/11 11:19:06;;;;;;;0.20;0.10;;;28.90;44.50;;;;;;5056733;28;20500;-77
2021/08/11 11:21:32;;;;;;;0.30;0.20;;;29.00;43.70;;;;;;5056836;28;20029;-77
2021/08/11 11:23:58;;;;;;;0.32;0.20;;;29.20;44.50;;;;;;5057023;28;20029;-77
2021/08/11 11:26:34;;;;;;;0.60;0.20;;;29.30;41.90;;;;;;5055377;28;20054;-77
2021/08/11 11:29:01;;;;;;;0.28;0.10;;;29.30;44.30;;;;;;5056408;28;20029;-77
2021/08/11 11:31:46;;;;;;;0.50;0.30;;;29.30;44.60;;;;;;5056697;28;20021;-77
2021/08/11 11:34:32;;;;;;;0.20;0.10;;;28.90;42.60;;;;;;5056549;28;20024;-77
2021/08/11 11:36:58;;;;;;;0.52;0.20;;;28.90;43.20;;;;;;5056521;28;20088;-77
2021/08/11 11:39:29;;;;;;;0.35;0.20;;;28.70;43.20;;;;;;5071720;28;20025;-77
2021/08/11 11:42:15;;;;;;;0.40;0.25;;;29.00;43.50;;;;;;5073116;28;20028;-77
2021/08/11 11:44:57;;;;;;;0.22;0.13;;;28.90;44.40;;;;;;5066444;28;20076;-77
2021/08/11 11:47:38;;;;;;;0.40;0.20;;;28.80;43.90;;;;;;5056189;28;20498;-77
2021/08/11 11:50:30;;;;;;;0.50;0.30;;;29.10;44.40;;;;;;5071733;28;20025;-78
2021/08/11 11:53:06;;;;;;;0.20;0.10;;;28.80;44.30;;;;;;5055029;28;20033;-77
2021/08/11 11:55:36;;;;;;;0.47;0.20;;;28.70;42.30;;;;;;5065018;28;20035;-77
2021/08/11 11:58:06;;;;;;;0.50;0.28;;;28.70;44.50;;;;;;5076111;28;20028;-77
2021/08/11 12:00:32;;;;;;;0.30;0.20;;;28.70;45.90;;;;;;5076027;28;20077;-77
2021/08/11 12:02:58;;;;;;;0.85;0.30;;;28.30;44.70;;;;;;5075948;28;20055;-78
2021/08/11 12:05:24;;;;;;;0.60;0.30;;;28.10;44.90;;;;;;5058219;28;20033;-77
2021/08/11 12:07:50;;;;;;;0.50;0.22;;;28.10;43.60;;;;;;5055813;28;20087;-77
2021/08/11 12:10:27;;;;;;;0.63;0.30;;;27.80;46.40;;;;;;5055816;28;20028;-77
2021/08/11 12:13:02;;;;;;;0.63;0.32;;;27.60;46.80;;;;;;5064800;28;20036;-77
2021/08/11 12:15:52;;;;;;;0.50;0.20;;;27.90;45.90;;;;;;5061721;28;20107;-77
2021/08/11 12:18:20;;;;;;;0.32;0.20;;;27.50;47.30;;;;;;5065836;28;20104;-77
2021/08/11 12:20:48;;;;;;;0.40;0.20;;;27.70;46.10;;;;;;5075740;28;20038;-77
2021/08/11 12:23:26;;;;;;;0.60;0.30;;;27.60;46.40;;;;;;5070489;28;20056;-77
2021/08/11 12:25:56;;;;;;;0.75;0.25;;;27.60;48.00;;;;;;5055655;28;20043;-77
2021/08/11 12:28:27;;;;;;;0.40;0.20;;;28.00;46.80;;;;;;5055486;28;20033;-77
2021/08/11 12:30:58;;;;;;;0.50;0.30;;;28.10;46.40;;;;;;5073623;28;20082;-77
2021/08/11 12:33:27;;;;;;;0.63;0.30;;;28.00;46.00;;;;;;5075652;28;20024;-77
2021/08/11 12:35:54;;;;;;;0.70;0.40;;;28.30;46.00;;;;;;5059346;28;20029;-77
2021/08/11 12:38:33;;;;;;;0.30;0.20;;;28.30;45.00;;;;;;5055498;28;20476;-77
2021/08/11 12:41:23;;;;;;;0.50;0.28;;;28.20;45.20;;;;;;5064019;28;20029;-77
2021/08/11 12:43:51;;;;;;;0.43;0.30;;;28.50;43.30;;;;;;5069963;28;20075;-77
2021/08/11 12:46:36;;;;;;;0.57;0.30;;;28.30;46.00;;;;;;5055654;28;20018;-77
2021/08/11 12:49:23;;;;;;;0.60;0.30;;;28.10;46.20;;;;;;5055165;28;20059;-77
2021/08/11 12:52:08;;;;;;;0.50;0.38;;;28.40;45.10;;;;;;5055336;28;20399;-77
2021/08/11 12:54:53;;;;;;;0.70;0.40;;;28.90;44.70;;;;;;5058635;28;20025;-77
2021/08/11 12:57:18;;;;;;;0.60;0.40;;;29.10;44.70;;;;;;5055811;28;20017;-77